createdAt,value
2022-09-06T00:00:16.363Z,14.13
2022-09-06T00:02:44.964Z,16.25
2022-09-06T00:05:13.310Z,17.65
2022-09-06T00:07:41.484Z,20.10
2022-09-06T00:12:37.731Z,20.08
2022-09-06T00:15:06.582Z,17.30
2022-09-06T00:17:34.329Z,23.58
2022-09-06T00:20:02.798Z,22.13
2022-09-06T00:22:30.787Z,21.73
2022-09-06T00:24:58.286Z,20.75
2022-09-06T00:27:25.953Z,20.60
2022-09-06T00:29:53.540Z,23.17
2022-09-06T00:32:21.080Z,24.48
2022-09-06T00:34:48.575Z,19.75
2022-09-06T00:37:16.274Z,21.02
2022-09-06T00:39:44.611Z,20.50
2022-09-06T00:42:13.449Z,22.98
2022-09-06T00:44:41.540Z,22.73
2022-09-06T00:47:09.274Z,21.60
2022-09-06T00:49:47.548Z,24.52
2022-09-06T00:52:16.896Z,26.08
2022-09-06T00:54:44.448Z,25.25
2022-09-06T00:57:14.454Z,26.05
2022-09-06T00:59:43.759Z,23.75
2022-09-06T01:02:12.953Z,20.55
2022-09-06T01:04:43.819Z,22.80
2022-09-06T01:07:32.418Z,23.10
2022-09-06T01:10:19.683Z,26.77
2022-09-06T01:13:16.643Z,26.35
2022-09-06T01:16:12.751Z,25.73
2022-09-06T01:18:52.388Z,25.60
2022-09-06T01:21:34.986Z,26.45
2022-09-06T01:24:29.088Z,34.33
2022-09-06T01:26:56.682Z,24.02
2022-09-06T01:30:01.978Z,25.48
2022-09-06T01:32:55.483Z,23.67
2022-09-06T01:35:31.782Z,21.42
2022-09-06T01:38:00.259Z,25.05
2022-09-06T01:40:28.480Z,24.48
2022-09-06T01:45:42.174Z,24.30
2022-09-06T01:48:36.088Z,24.88
2022-09-06T01:51:21.737Z,25.42
2022-09-06T01:54:26.949Z,25.13
2022-09-06T01:57:18.654Z,23.65
2022-09-06T02:00:12.046Z,27.05
2022-09-06T02:02:50.290Z,26.45
2022-09-06T02:05:24.292Z,29.50
2022-09-06T02:07:58.130Z,28.92
2022-09-06T02:10:36.554Z,30.92
2022-09-06T02:13:07.443Z,28.98
2022-09-06T02:15:39.362Z,27.52
2022-09-06T02:18:14.567Z,29.52
2022-09-06T02:20:48.059Z,30.52
2022-09-06T02:23:17.741Z,33.35
2022-09-06T02:25:54.752Z,32.15
2022-09-06T02:28:23.028Z,30.77
2022-09-06T02:30:59.239Z,31.65
2022-09-06T02:33:30.987Z,31.52
2022-09-06T02:36:07.007Z,30.00
2022-09-06T02:38:37.742Z,30.27
2022-09-06T02:41:06.458Z,27.80
2022-09-06T02:43:34.229Z,27.80
2022-09-06T02:46:02.411Z,28.52
2022-09-06T02:50:57.474Z,26.75
2022-09-06T02:53:25.208Z,30.65
2022-09-06T02:55:52.679Z,28.65
2022-09-06T02:58:20.241Z,29.20
2022-09-06T03:00:47.955Z,27.48
2022-09-06T03:03:16.143Z,28.95
2022-09-06T03:05:50.724Z,30.27
2022-09-06T03:08:20.431Z,31.38
2022-09-06T03:10:49.838Z,27.98
2022-09-06T03:13:17.594Z,28.27
2022-09-06T03:15:45.528Z,28.58
2022-09-06T03:18:13.011Z,31.35
2022-09-06T03:20:40.782Z,29.38
2022-09-06T03:23:09.475Z,29.52
2022-09-06T03:25:37.091Z,28.38
2022-09-06T03:28:04.731Z,26.98
2022-09-06T03:30:32.497Z,25.60
2022-09-06T03:33:02.803Z,26.88
2022-09-06T03:35:30.506Z,27.23
2022-09-06T03:37:57.963Z,29.77
2022-09-06T03:40:25.445Z,27.40
2022-09-06T03:42:52.952Z,29.80
2022-09-06T03:45:20.577Z,29.38
2022-09-06T03:47:48.164Z,29.52
2022-09-06T03:50:15.813Z,30.98
2022-09-06T03:52:43.545Z,29.45
2022-09-06T03:55:11.937Z,34.05
2022-09-06T04:00:07.303Z,30.08
2022-09-06T04:02:39.369Z,33.55
2022-09-06T04:05:07.432Z,33.42
2022-09-06T04:07:34.955Z,33.78
2022-09-06T04:10:02.429Z,36.42
2022-09-06T04:12:30.002Z,34.00
2022-09-06T04:14:57.542Z,32.65
2022-09-06T04:17:25.329Z,29.33
2022-09-06T04:19:53.031Z,32.60
2022-09-06T04:22:20.767Z,33.75
2022-09-06T04:24:48.262Z,36.17
2022-09-06T04:27:15.839Z,39.00
2022-09-06T04:29:43.370Z,39.47
2022-09-06T04:32:11.241Z,42.28
2022-09-06T04:34:38.733Z,44.75
2022-09-06T04:37:06.238Z,47.55
2022-09-06T04:39:33.849Z,49.45
2022-09-06T04:42:01.628Z,49.50
2022-09-06T04:44:29.114Z,52.28
2022-09-06T04:47:23.007Z,53.35
2022-09-06T04:49:50.523Z,49.35
2022-09-06T04:52:18.259Z,52.00
2022-09-06T04:54:45.870Z,51.42
2022-09-06T04:57:13.415Z,50.15
2022-09-06T04:59:43.760Z,49.90
2022-09-06T05:02:11.407Z,43.53
2022-09-06T05:04:38.982Z,46.05
2022-09-06T05:07:08.734Z,45.67
2022-09-06T05:09:36.875Z,43.97
2022-09-06T05:14:32.181Z,43.55
2022-09-06T05:17:00.017Z,47.85
2022-09-06T05:19:27.542Z,46.72
2022-09-06T05:21:55.310Z,46.70
2022-09-06T05:24:22.774Z,46.28
2022-09-06T05:26:50.272Z,44.20
2022-09-06T05:29:17.754Z,47.25
2022-09-06T05:31:45.471Z,46.10
2022-09-06T05:34:14.978Z,46.92
2022-09-06T05:36:42.460Z,47.20
2022-09-06T05:39:09.944Z,46.15
2022-09-06T05:41:37.735Z,45.05
2022-09-06T05:44:05.305Z,48.20
2022-09-06T05:46:32.767Z,45.92
2022-09-06T05:49:07.965Z,47.40
2022-09-06T05:51:35.635Z,47.17
2022-09-06T05:54:03.231Z,47.88
2022-09-06T05:56:30.794Z,46.78
2022-09-06T05:58:58.318Z,50.67
2022-09-06T06:01:28.095Z,53.10
2022-09-06T06:03:57.281Z,53.05
2022-09-06T06:06:26.884Z,52.47
2022-09-06T06:08:54.446Z,52.10
2022-09-06T06:11:22.622Z,50.20
2022-09-06T06:13:50.848Z,48.55
2022-09-06T06:16:22.561Z,53.17
2022-09-06T06:18:52.505Z,49.65
2022-09-06T06:21:28.487Z,48.55
2022-09-06T06:24:01.107Z,46.78
2022-09-06T06:26:32.311Z,49.05
2022-09-06T06:29:02.151Z,45.60
2022-09-06T06:31:31.197Z,38.85
2022-09-06T06:33:59.666Z,39.13
2022-09-06T06:36:30.737Z,38.78
2022-09-06T06:38:59.137Z,35.22
2022-09-06T06:41:28.779Z,35.08
2022-09-06T06:44:01.118Z,33.33
2022-09-06T06:46:31.368Z,30.00
2022-09-06T06:48:59.294Z,30.38
2022-09-06T06:51:29.443Z,33.25
2022-09-06T06:53:57.578Z,45.50
2022-09-06T06:56:26.955Z,35.33
2022-09-06T06:58:57.675Z,32.00
2022-09-06T07:01:30.368Z,27.80
2022-09-06T07:03:58.659Z,25.70
2022-09-06T07:09:19.629Z,23.98
2022-09-06T07:11:48.950Z,20.25
2022-09-06T07:14:17.489Z,20.73
2022-09-06T07:16:45.549Z,21.30
2022-09-06T07:22:04.478Z,16.05
2022-09-06T07:24:33.355Z,17.52
2022-09-06T07:29:48.399Z,16.88
2022-09-06T07:32:15.919Z,19.73
2022-09-06T07:34:43.368Z,15.73
2022-09-06T07:37:10.831Z,14.68
2022-09-06T07:39:38.990Z,12.80
2022-09-06T07:42:06.975Z,11.52
2022-09-06T07:44:34.499Z,14.80
2022-09-06T07:55:29.099Z,8.90
2022-09-06T07:57:56.693Z,8.52
2022-09-06T08:00:24.165Z,9.02
2022-09-06T08:02:53.838Z,8.70
2022-09-06T08:10:56.681Z,7.65
2022-09-06T08:13:24.227Z,7.13
2022-09-06T08:16:01.836Z,6.50
2022-09-06T08:18:29.671Z,6.03
2022-09-06T08:21:07.094Z,6.20
2022-09-06T08:23:39.233Z,5.97
2022-09-06T08:26:06.770Z,4.45
2022-09-06T08:28:34.485Z,4.85
2022-09-06T08:31:14.037Z,5.72
2022-09-06T08:33:42.444Z,5.22
2022-09-06T08:36:11.227Z,4.97
2022-09-06T08:38:38.874Z,5.07
2022-09-06T08:41:20.846Z,4.68
2022-09-06T08:46:58.075Z,3.97
2022-09-06T08:49:36.684Z,3.85
2022-09-06T08:52:14.620Z,4.30
2022-09-06T08:55:05.730Z,4.15
2022-09-06T08:57:52.260Z,4.45
2022-09-06T09:00:20.698Z,4.35
2022-09-06T09:03:07.350Z,4.32
2022-09-06T09:05:42.429Z,4.68
2022-09-06T09:08:12.953Z,4.68
2022-09-06T09:10:50.629Z,4.05
2022-09-06T09:13:44.147Z,4.35
2022-09-06T09:16:11.883Z,4.57
2022-09-06T09:18:44.052Z,3.55
2022-09-06T09:21:12.248Z,4.03
2022-09-06T09:23:40.123Z,3.78
2022-09-06T09:26:14.190Z,3.97
2022-09-06T09:29:14.719Z,3.60
2022-09-06T09:31:53.576Z,3.75
2022-09-06T09:34:31.075Z,4.95
2022-09-06T09:40:26.202Z,3.25
2022-09-06T09:42:56.899Z,4.10
2022-09-06T09:45:28.337Z,5.32
2022-09-06T09:47:56.502Z,4.15
2022-09-06T09:50:35.339Z,3.58
2022-09-06T09:53:15.527Z,3.80
2022-09-06T09:55:44.245Z,3.80
2022-09-06T09:58:36.301Z,4.15
2022-09-06T10:01:16.593Z,5.55
2022-09-06T10:09:22.870Z,3.92
2022-09-06T10:11:58.186Z,4.60
2022-09-06T10:14:30.812Z,3.58
2022-09-06T10:16:59.871Z,4.10
2022-09-06T10:19:41.358Z,3.75
2022-09-06T10:22:28.612Z,4.03
2022-09-06T10:25:06.639Z,3.70
2022-09-06T10:27:35.912Z,3.83
2022-09-06T10:30:06.384Z,3.30
2022-09-06T10:32:55.301Z,3.30
2022-09-06T10:35:26.251Z,3.60
2022-09-06T10:38:15.743Z,3.40
2022-09-06T10:40:54.606Z,3.17
2022-09-06T10:43:41.383Z,3.47
2022-09-06T10:46:16.123Z,3.00
2022-09-06T10:48:46.645Z,3.22
2022-09-06T10:51:34.324Z,3.25
2022-09-06T10:54:09.436Z,4.25
2022-09-06T10:56:59.519Z,4.20
2022-09-06T11:00:15.358Z,3.38
2022-09-06T11:05:54.467Z,3.50
2022-09-06T11:11:20.632Z,3.15
2022-09-06T11:13:48.407Z,3.00
2022-09-06T11:16:18.899Z,3.25
2022-09-06T11:19:05.322Z,3.00
2022-09-06T11:21:48.108Z,3.40
2022-09-06T11:24:35.346Z,3.20
2022-09-06T11:27:17.960Z,3.22
2022-09-06T11:29:50.124Z,3.00
2022-09-06T11:32:36.980Z,3.15
2022-09-06T11:35:11.184Z,3.57
2022-09-06T11:37:44.661Z,3.28
2022-09-06T11:40:28.171Z,3.45
2022-09-06T11:42:56.968Z,3.55
2022-09-06T11:45:48.243Z,3.42
2022-09-06T11:48:35.053Z,3.55
2022-09-06T11:51:12.645Z,3.28
2022-09-06T11:53:49.324Z,3.30
2022-09-06T11:57:02.217Z,3.50
2022-09-06T11:59:36.679Z,3.90
2022-09-06T12:02:30.228Z,3.78
2022-09-06T12:05:01.074Z,3.50
2022-09-06T12:07:30.956Z,4.22
2022-09-06T12:10:02.197Z,3.97
2022-09-06T12:12:52.446Z,4.00
2022-09-06T12:15:44.262Z,3.28
2022-09-06T12:18:46.760Z,3.47
2022-09-06T12:21:40.988Z,3.58
2022-09-06T12:24:30.010Z,3.35
2022-09-06T12:27:15.740Z,3.42
2022-09-06T12:30:01.972Z,3.63
2022-09-06T12:32:49.518Z,3.47
2022-09-06T12:38:24.512Z,3.42
2022-09-06T12:40:58.175Z,3.25
2022-09-06T12:43:27.106Z,3.30
2022-09-06T12:45:54.723Z,3.47
2022-09-06T12:48:31.453Z,3.28
2022-09-06T12:51:05.433Z,2.85
2022-09-06T12:53:34.736Z,2.72
2022-09-06T12:56:08.228Z,2.95
2022-09-06T12:58:37.399Z,2.55
2022-09-06T13:01:36.227Z,3.15
2022-09-06T13:04:24.939Z,2.95
2022-09-06T13:06:54.068Z,2.78
2022-09-06T13:09:25.497Z,2.83
2022-09-06T13:11:56.375Z,3.05
2022-09-06T13:14:29.884Z,2.50
2022-09-06T13:16:57.762Z,3.03
2022-09-06T13:19:30.756Z,2.78
2022-09-06T13:21:58.947Z,2.63
2022-09-06T13:26:54.645Z,2.22
2022-09-06T13:31:59.004Z,2.17
2022-09-06T13:34:29.429Z,2.60
2022-09-06T13:37:10.144Z,2.65
2022-09-06T13:39:42.339Z,2.30
2022-09-06T13:42:31.617Z,2.78
2022-09-06T13:45:34.428Z,2.80
2022-09-06T13:48:19.463Z,2.70
2022-09-06T13:50:50.339Z,2.63
2022-09-06T13:53:20.848Z,2.55
2022-09-06T13:55:52.351Z,2.88
2022-09-06T13:58:21.438Z,2.92
2022-09-06T14:00:51.819Z,2.95
2022-09-06T14:03:30.928Z,2.78
2022-09-06T14:06:03.425Z,2.60
2022-09-06T14:08:55.753Z,2.83
2022-09-06T14:11:24.988Z,2.50
2022-09-06T14:13:53.032Z,2.65
2022-09-06T14:16:21.034Z,2.25
2022-09-06T14:21:27.406Z,2.40
2022-09-06T14:24:00.902Z,2.78
2022-09-06T14:26:31.635Z,2.75
2022-09-06T14:29:02.649Z,2.00
2022-09-06T14:31:32.575Z,2.10
2022-09-06T14:34:01.914Z,2.35
2022-09-06T14:36:32.215Z,2.33
2022-09-06T14:39:01.448Z,2.55
2022-09-06T14:41:29.259Z,2.42
2022-09-06T14:43:58.384Z,2.50
2022-09-06T14:46:29.795Z,2.42
2022-09-06T14:49:11.610Z,3.05
2022-09-06T14:51:42.230Z,3.13
2022-09-06T14:54:14.130Z,2.50
2022-09-06T14:56:43.700Z,2.42
2022-09-06T14:59:15.320Z,2.95
2022-09-06T15:01:43.298Z,2.92
2022-09-06T15:06:44.922Z,3.08
2022-09-06T15:09:13.643Z,3.22
2022-09-06T15:11:49.368Z,3.05
2022-09-06T15:14:23.264Z,3.20
2022-09-06T15:16:55.877Z,3.00
2022-09-06T15:19:27.838Z,3.50
2022-09-06T15:21:57.206Z,3.33
2022-09-06T15:24:25.496Z,3.10
2022-09-06T15:26:53.518Z,2.85
2022-09-06T15:31:50.707Z,2.90
2022-09-06T15:34:28.335Z,3.40
2022-09-06T15:36:57.154Z,2.97
2022-09-06T15:39:27.739Z,3.30
2022-09-06T15:41:57.084Z,3.10
2022-09-06T15:44:24.664Z,3.03
2022-09-06T15:46:55.773Z,2.80
2022-09-06T15:49:28.322Z,3.10
2022-09-06T15:51:58.179Z,3.47
2022-09-06T15:54:48.001Z,3.72
2022-09-06T15:57:16.814Z,3.25
2022-09-06T15:59:45.046Z,3.85
2022-09-06T16:02:13.522Z,3.80
2022-09-06T16:04:41.708Z,3.78
2022-09-06T16:09:37.256Z,3.20
2022-09-06T16:12:05.405Z,3.25
2022-09-06T16:17:02.738Z,3.88
2022-09-06T16:19:33.640Z,3.60
2022-09-06T16:22:02.485Z,3.13
2022-09-06T16:24:29.946Z,3.20
2022-09-06T16:26:57.920Z,3.53
2022-09-06T16:29:26.266Z,3.03
2022-09-06T16:31:59.564Z,3.58
2022-09-06T16:34:27.739Z,3.67
2022-09-06T16:36:57.013Z,3.28
2022-09-06T16:39:25.489Z,3.63
2022-09-06T16:44:20.516Z,2.78
2022-09-06T16:46:49.802Z,2.75
2022-09-06T16:49:19.182Z,2.85
2022-09-06T16:51:50.276Z,2.58
2022-09-06T16:54:18.822Z,2.30
2022-09-06T16:56:46.675Z,2.28
2022-09-06T16:59:17.590Z,2.40
2022-09-06T17:01:48.468Z,2.30
2022-09-06T17:04:16.630Z,2.08
2022-09-06T17:09:18.724Z,2.08
2022-09-06T17:11:50.071Z,1.70
2022-09-06T17:14:18.669Z,1.70
2022-09-06T17:17:05.063Z,1.95
2022-09-06T17:19:41.393Z,1.92
2022-09-06T17:22:10.588Z,2.10
2022-09-06T17:24:39.416Z,2.00
2022-09-06T17:27:07.597Z,2.03
2022-09-06T17:32:04.603Z,2.15
2022-09-06T17:34:32.534Z,1.92
2022-09-06T17:37:00.219Z,1.83
2022-09-06T17:39:28.239Z,2.13
2022-09-06T17:41:56.141Z,1.65
2022-09-06T17:49:42.538Z,2.10
2022-09-06T17:52:11.780Z,2.17
2022-09-06T17:54:40.054Z,2.08
2022-09-06T17:57:07.870Z,2.22
2022-09-06T17:59:36.295Z,2.35
2022-09-06T18:02:05.215Z,2.17
2022-09-06T18:04:33.025Z,2.40
2022-09-06T18:07:01.070Z,2.80
2022-09-06T18:09:28.690Z,2.30
2022-09-06T18:11:57.022Z,2.53
2022-09-06T18:14:24.543Z,2.72
2022-09-06T18:16:52.517Z,3.13
2022-09-06T18:19:21.060Z,3.38
2022-09-06T18:21:49.010Z,3.63
2022-09-06T18:24:17.109Z,2.90
2022-09-06T18:29:14.876Z,2.78
2022-09-06T18:31:43.558Z,2.58
2022-09-06T18:34:12.338Z,2.42
2022-09-06T18:36:40.214Z,2.60
2022-09-06T18:39:08.210Z,2.90
2022-09-06T18:41:54.161Z,2.67
2022-09-06T18:44:22.343Z,2.92
2022-09-06T18:49:19.592Z,2.70
2022-09-06T18:51:47.502Z,3.35
2022-09-06T18:54:18.850Z,2.97
2022-09-06T18:56:53.017Z,3.10
2022-09-06T18:59:24.002Z,2.80
2022-09-06T19:01:51.682Z,2.33
2022-09-06T19:04:19.263Z,2.70
2022-09-06T19:06:46.999Z,2.88
2022-09-06T19:09:16.690Z,2.90
2022-09-06T19:11:46.988Z,2.85
2022-09-06T19:14:14.695Z,4.10
2022-09-06T19:16:42.391Z,2.97
2022-09-06T19:19:11.721Z,2.58
2022-09-06T19:21:42.400Z,2.50
2022-09-06T19:24:16.228Z,2.38
2022-09-06T19:26:44.693Z,2.80
2022-09-06T19:29:15.607Z,2.70
2022-09-06T19:31:44.261Z,3.15
2022-09-06T19:34:13.564Z,2.88
2022-09-06T19:36:41.809Z,2.55
2022-09-06T19:41:45.073Z,2.90
2022-09-06T19:44:13.374Z,3.30
2022-09-06T19:49:19.160Z,2.90
2022-09-06T19:51:48.852Z,3.25
2022-09-06T19:54:17.614Z,2.85
2022-09-06T19:56:48.638Z,3.33
2022-09-06T19:59:17.741Z,3.25
2022-09-06T20:01:46.803Z,3.00
2022-09-06T20:04:15.753Z,3.22
2022-09-06T20:06:43.631Z,3.75
2022-09-06T20:09:11.579Z,3.15
2022-09-06T20:11:41.262Z,3.08
2022-09-06T20:14:10.579Z,3.05
2022-09-06T20:16:41.716Z,3.10
2022-09-06T20:19:11.924Z,2.92
2022-09-06T20:21:39.666Z,3.10
2022-09-06T20:24:07.523Z,3.00
2022-09-06T20:26:35.577Z,2.97
2022-09-06T20:29:04.916Z,3.00
2022-09-06T20:31:33.586Z,2.60
2022-09-06T20:34:04.426Z,2.80
2022-09-06T20:36:32.051Z,2.70
2022-09-06T20:39:00.305Z,2.22
2022-09-06T20:41:28.182Z,2.20
2022-09-06T20:43:58.008Z,2.63
2022-09-06T20:46:32.157Z,2.10
2022-09-06T20:49:03.480Z,2.40
2022-09-06T20:51:35.364Z,2.60
2022-09-06T20:54:04.769Z,2.22
2022-09-06T20:56:37.200Z,2.53
2022-09-06T20:59:14.128Z,2.20
2022-09-06T21:01:44.172Z,2.72
2022-09-06T21:04:14.387Z,2.92
2022-09-06T21:06:42.286Z,2.67
2022-09-06T21:09:12.324Z,2.72
2022-09-06T21:11:41.095Z,2.92
2022-09-06T21:14:09.721Z,2.50
2022-09-06T21:16:40.859Z,2.90
2022-09-06T21:19:10.081Z,2.78
2022-09-06T21:21:38.539Z,2.95
2022-09-06T21:24:07.737Z,3.03
2022-09-06T21:26:35.515Z,2.97
2022-09-06T21:29:03.733Z,2.67
2022-09-06T21:34:03.353Z,2.97
2022-09-06T21:36:36.620Z,2.78
2022-09-06T21:39:07.319Z,2.83
2022-09-06T21:41:35.281Z,3.38
2022-09-06T21:44:04.223Z,2.50
2022-09-06T21:46:34.211Z,2.85
2022-09-06T21:49:05.154Z,2.78
2022-09-06T21:51:33.256Z,2.85
2022-09-06T21:54:04.960Z,2.72
2022-09-06T21:56:34.256Z,2.80
2022-09-06T21:59:02.408Z,2.50
2022-09-06T22:01:32.098Z,3.13
2022-09-06T22:04:00.513Z,2.80
2022-09-06T22:08:59.144Z,2.70
2022-09-06T22:11:32.146Z,2.85
2022-09-06T22:14:02.093Z,2.28
2022-09-06T22:16:31.103Z,2.53
2022-09-06T22:18:58.716Z,2.53
2022-09-06T22:21:26.878Z,2.88
2022-09-06T22:24:03.767Z,2.60
2022-09-06T22:26:33.062Z,2.50
2022-09-06T22:29:04.214Z,2.35
2022-09-06T22:31:34.219Z,3.13
2022-09-06T22:34:02.434Z,2.72
2022-09-06T22:38:57.917Z,2.47
2022-09-06T22:43:54.936Z,2.63
2022-09-06T22:46:23.055Z,2.35
2022-09-06T22:51:18.187Z,2.80
2022-09-06T22:53:45.727Z,2.55
2022-09-06T22:56:13.209Z,2.85
2022-09-06T22:58:40.852Z,2.50
2022-09-06T23:01:10.734Z,2.85
2022-09-06T23:03:38.714Z,2.40
2022-09-06T23:06:06.348Z,2.88
2022-09-06T23:08:36.583Z,2.63
2022-09-06T23:11:09.184Z,2.50
2022-09-06T23:13:37.063Z,3.40
2022-09-06T23:16:06.664Z,3.17
2022-09-06T23:18:34.223Z,2.83
2022-09-06T23:21:09.770Z,2.65
2022-09-06T23:23:38.433Z,2.53
2022-09-06T23:26:08.177Z,2.63
2022-09-06T23:28:36.801Z,2.38
2022-09-06T23:31:06.142Z,2.45
2022-09-06T23:33:37.259Z,2.58
2022-09-06T23:36:06.328Z,2.70
2022-09-06T23:38:35.279Z,2.55
2022-09-06T23:41:04.417Z,2.67
2022-09-06T23:43:31.984Z,2.95
2022-09-06T23:45:59.475Z,2.67
2022-09-06T23:48:27.171Z,2.70
2022-09-06T23:50:54.691Z,2.88
2022-09-06T23:53:22.819Z,2.67
2022-09-06T23:58:17.799Z,3.10
